Time,TemperatureF,DewpointF,PressureIn,WindDirection,WindDirectionDegrees,WindSpeedMPH,WindSpeedGustMPH,Humidity,HourlyPrecipIn,Conditions,Clouds,dailyrainin,SoftwareType,DateUTC
2013-01-27 00:01:00,59.4,54.5,30.16,SW,236,1.0,2.0,84,0.00,CLR,CLR,0.00,WeatherDisplay:10.37,2013-01-27 05:01:00,
2013-01-27 00:05:00,59.2,54.0,30.16,WSW,248,0.0,1.0,83,0.00,CLR,CLR,0.00,WeatherDisplay:10.37,2013-01-27 05:05:00,
2013-01-27 00:10:00,58.8,54.0,30.16,WSW,248,0.0,0.0,84,0.00,CLR,CLR,0.00,WeatherDisplay:10.37,2013-01-27 05:10:00,
2013-01-27 00:20:00,59.0,54.5,30.16,WSW,255,0.0,1.0,85,0.00,CLR,CLR,0.00,WeatherDisplay:10.37,2013-01-27 05:20:00,
2013-01-27 00:30:00,58.6,53.5,30.16,West,270,0.0,0.0,83,0.00,CLR,CLR,0.00,WeatherDisplay:10.37,2013-01-27 05:30:00,
2013-01-27 00:41:00,57.9,53.1,30.16,West,270,0.0,0.0,84,0.00,CLR,CLR,0.00,WeatherDisplay:10.37,2013-01-27 05:41:00,
2013-01-27 00:51:00,57.8,53.3,30.16,West,270,0.0,0.0,85,0.00,CLR,CLR,0.00,WeatherDisplay:10.37,2013-01-27 05:51:00,
2013-01-27 01:00:00,57.2,52.7,30.16,West,270,0.0,0.0,85,0.00,CLR,CLR,0.00,WeatherDisplay:10.37,2013-01-27 06:00:00,
2013-01-27 01:05:00,57.6,53.7,30.16,West,270,0.0,1.0,87,0.00,CLR,CLR,0.00,WeatherDisplay:10.37,2013-01-27 06:05:00,
2013-01-27 01:10:00,57.9,54.1,30.16,West,270,1.0,1.0,87,0.00,CLR,CLR,0.00,WeatherDisplay:10.37,2013-01-27 06:10:00,
2013-01-27 01:20:00,57.9,54.1,30.16,West,270,1.0,1.0,87,0.00,CLR,CLR,0.00,WeatherDisplay:10.37,2013-01-27 06:20:00,
2013-01-27 01:30:00,57.7,53.9,30.16,WSW,251,1.0,1.0,87,0.00,CLR,CLR,0.00,WeatherDisplay:10.37,2013-01-27 06:30:00,
2013-01-27 01:35:00,57.5,53.7,30.16,WSW,248,0.0,1.0,87,0.00,CLR,CLR,0.00,WeatherDisplay:10.37,2013-01-27 06:35:00,
2013-01-27 01:40:00,57.2,53.0,30.16,WSW,248,0.0,0.0,86,0.00,CLR,CLR,0.00,WeatherDisplay:10.37,2013-01-27 06:40:00,
2013-01-27 01:50:00,57.3,54.1,30.16,WSW,255,1.0,1.0,89,0.00,CLR,CLR,0.00,WeatherDisplay:10.37,2013-01-27 06:50:00,
2013-01-27 01:55:00,57.6,54.3,30.16,West,280,1.0,2.0,89,0.00,CLR,CLR,0.00,WeatherDisplay:10.37,2013-01-27 06:55:00,
2013-01-27 02:05:00,57.2,53.4,30.16,WNW,292,0.0,0.0,87,0.00,CLR,CLR,0.00,WeatherDisplay:10.37,2013-01-27 07:05:00,
2013-01-27 02:15:00,57.2,54.0,30.16,WNW,292,0.0,1.0,89,0.00,CLR,CLR,0.00,WeatherDisplay:10.37,2013-01-27 07:15:00,
2013-01-27 02:20:00,57.2,54.0,30.16,WNW,292,0.0,0.0,89,0.00,CLR,CLR,0.00,WeatherDisplay:10.37,2013-01-27 07:20:00,
2013-01-27 02:30:00,57.4,54.5,30.16,NW,312,0.0,1.0,90,0.00,CLR,CLR,0.00,WeatherDisplay:10.37,2013-01-27 07:30:00,
2013-01-27 02:40:00,57.2,54.3,30.16,North,353,0.0,1.0,90,0.00,CLR,CLR,0.00,WeatherDisplay:10.37,2013-01-27 07:40:00,
2013-01-27 02:50:00,56.8,53.9,30.16,NNW,338,0.0,1.0,90,0.00,CLR,CLR,0.00,WeatherDisplay:10.37,2013-01-27 07:50:00,
2013-01-27 03:00:00,57.2,54.9,30.16,NW,325,1.0,1.0,92,0.00,CLR,CLR,0.00,WeatherDisplay:10.37,2013-01-27 08:00:00,
2013-01-27 03:10:00,57.0,54.4,30.16,NNW,338,0.0,0.0,91,0.00,CLR,CLR,0.00,WeatherDisplay:10.37,2013-01-27 08:10:00,
2013-01-27 03:20:00,57.2,54.9,30.16,NNW,338,1.0,1.0,92,0.00,CLR,CLR,0.00,WeatherDisplay:10.37,2013-01-27 08:20:00,
2013-01-27 03:30:00,56.8,54.5,30.16,NNW,328,1.0,1.0,92,0.00,CLR,CLR,0.00,WeatherDisplay:10.37,2013-01-27 08:30:00,
2013-01-27 03:40:00,57.0,54.7,30.16,NW,315,1.0,1.0,92,0.00,CLR,CLR,0.00,WeatherDisplay:10.37,2013-01-27 08:40:00,
2013-01-27 03:50:00,56.8,54.5,30.16,NW,315,0.0,0.0,92,0.00,CLR,CLR,0.00,WeatherDisplay:10.37,2013-01-27 08:50:00,
2013-01-27 04:00:00,56.7,54.4,30.16,NW,315,0.0,0.0,92,0.00,CLR,CLR,0.00,WeatherDisplay:10.37,2013-01-27 09:00:00,
2013-01-27 04:05:00,56.3,53.7,30.16,NW,315,0.0,0.0,91,0.00,FEW,FEW,0.00,WeatherDisplay:10.37,2013-01-27 09:05:00,
2013-01-27 04:10:00,56.0,53.1,30.16,NW,315,0.0,0.0,90,0.00,FEW,FEW,0.00,WeatherDisplay:10.37,2013-01-27 09:10:00,
2013-01-27 04:20:00,55.8,53.0,30.16,NW,315,0.0,0.0,90,0.00,FEW,FEW,0.00,WeatherDisplay:10.37,2013-01-27 09:20:00,
2013-01-27 04:30:00,56.5,54.2,30.16,NW,315,1.0,1.0,92,0.00,FEW,FEW,0.00,WeatherDisplay:10.37,2013-01-27 09:30:00,
2013-01-27 04:40:00,56.1,53.8,30.16,NW,315,0.0,1.0,92,0.00,FEW,FEW,0.00,WeatherDisplay:10.37,2013-01-27 09:40:00,
2013-01-27 04:50:00,56.4,54.1,30.17,NW,315,0.0,0.0,92,0.00,FEW,FEW,0.00,WeatherDisplay:10.37,2013-01-27 09:50:00,
2013-01-27 05:00:00,55.4,52.8,30.17,NW,315,0.0,0.0,91,0.00,FEW,FEW,0.00,WeatherDisplay:10.37,2013-01-27 10:00:00,
2013-01-27 05:05:00,55.8,53.9,30.17,NNW,327,1.0,2.0,93,0.00,CLR,CLR,0.00,WeatherDisplay:10.37,2013-01-27 10:05:00,
2013-01-27 05:10:00,56.5,54.8,30.16,North,354,2.0,3.0,94,0.00,CLR,CLR,0.00,WeatherDisplay:10.37,2013-01-27 10:10:00,
2013-01-27 05:20:00,56.1,54.1,30.17,North,4,0.0,1.0,93,0.00,CLR,CLR,0.00,WeatherDisplay:10.37,2013-01-27 10:20:00,
2013-01-27 05:30:00,56.1,54.1,30.16,North,0,0.0,0.0,93,0.00,CLR,CLR,0.00,WeatherDisplay:10.37,2013-01-27 10:30:00,
2013-01-27 05:40:00,55.8,53.5,30.17,NNW,342,0.0,0.0,92,0.00,CLR,CLR,0.00,WeatherDisplay:10.37,2013-01-27 10:40:00,
2013-01-27 05:50:00,56.1,53.8,30.17,NNW,332,0.0,1.0,92,0.00,CLR,CLR,0.00,WeatherDisplay:10.37,2013-01-27 10:50:00,
2013-01-27 06:00:00,55.8,53.5,30.17,NW,315,0.0,0.0,92,0.00,CLR,CLR,0.00,WeatherDisplay:10.37,2013-01-27 11:00:00,
2013-01-27 06:05:00,55.6,53.3,30.17,NW,315,0.0,0.0,92,0.00,FEW,FEW,0.00,WeatherDisplay:10.37,2013-01-27 11:05:00,
2013-01-27 06:10:00,55.4,53.1,30.17,NW,315,0.0,0.0,92,0.00,FEW,FEW,0.00,WeatherDisplay:10.37,2013-01-27 11:10:00,
2013-01-27 06:20:00,55.4,53.4,30.18,West,274,1.0,1.0,93,0.00,SCT,SCT,0.00,WeatherDisplay:10.37,2013-01-27 11:20:00,
2013-01-27 06:30:00,54.9,52.9,30.18,SSW,202,2.0,2.0,93,0.00,SCT,SCT,0.00,WeatherDisplay:10.37,2013-01-27 11:30:00,
2013-01-27 06:35:00,54.7,52.7,30.18,SSW,202,1.0,2.0,93,0.00,SCT,SCT,0.00,WeatherDisplay:10.37,2013-01-27 11:35:00,
2013-01-27 06:40:00,54.7,52.4,30.18,SSW,202,0.0,1.0,92,0.00,SCT,SCT,0.00,WeatherDisplay:10.37,2013-01-27 11:40:00,
2013-01-27 06:50:00,55.2,53.2,30.18,SW,219,0.0,1.0,93,0.00,SCT,SCT,0.00,WeatherDisplay:10.37,2013-01-27 11:50:00,
2013-01-27 07:00:00,55.0,53.4,30.19,NNW,331,0.0,0.0,94,0.00,SCT,SCT,0.00,WeatherDisplay:10.37,2013-01-27 12:00:00,
2013-01-27 07:05:00,54.9,53.2,30.19,NNW,338,0.0,0.0,94,0.00,CLR,CLR,0.00,WeatherDisplay:10.37,2013-01-27 12:05:00,
2013-01-27 07:10:00,54.5,52.5,30.19,NNW,338,0.0,0.0,93,0.00,CLR,CLR,0.00,WeatherDisplay:10.37,2013-01-27 12:10:00,
2013-01-27 07:20:00,54.5,52.2,30.20,NNW,338,0.0,0.0,92,0.00,CLR,CLR,0.00,WeatherDisplay:10.37,2013-01-27 12:20:00,
2013-01-27 07:30:00,55.0,52.8,30.20,NNW,338,0.0,0.0,92,0.00,CLR,CLR,0.00,WeatherDisplay:10.37,2013-01-27 12:30:00,
2013-01-27 07:40:00,55.8,53.5,30.20,NNW,330,0.0,0.0,92,0.00,CLR,CLR,0.00,WeatherDisplay:10.37,2013-01-27 12:40:00,
2013-01-27 07:50:00,57.0,54.7,30.20,NW,315,0.0,0.0,92,0.00,CLR,CLR,0.00,WeatherDisplay:10.37,2013-01-27 12:50:00,
2013-01-27 08:00:00,57.7,55.4,30.20,NNW,338,0.0,0.0,92,0.00,CLR,CLR,0.00,WeatherDisplay:10.37,2013-01-27 13:00:00,
2013-01-27 08:05:00,58.1,55.8,30.20,NNW,338,0.0,0.0,92,0.00,SCT,SCT,0.00,WeatherDisplay:10.37,2013-01-27 13:05:00,
2013-01-27 08:10:00,59.4,57.3,30.20,NNW,338,0.0,0.0,93,0.00,SCT,SCT,0.00,WeatherDisplay:10.37,2013-01-27 13:10:00,
2013-01-27 08:20:00,60.1,58.0,30.20,NNW,331,0.0,1.0,93,0.00,SCT,SCT,0.00,WeatherDisplay:10.37,2013-01-27 13:20:00,
2013-01-27 08:30:00,61.1,59.0,30.20,NNW,337,1.0,2.0,93,0.00,SCT,SCT,0.00,WeatherDisplay:10.37,2013-01-27 13:30:00,
2013-01-27 08:40:00,60.6,57.7,30.21,North,0,3.0,5.0,90,0.00,SCT,SCT,0.00,WeatherDisplay:10.37,2013-01-27 13:40:00,
2013-01-27 08:50:00,61.2,58.2,30.21,North,7,3.0,5.0,90,0.00,SCT,SCT,0.00,WeatherDisplay:10.37,2013-01-27 13:50:00,
2013-01-27 09:00:00,62.7,59.4,30.22,North,8,2.0,3.0,89,0.00,SCT,SCT,0.00,WeatherDisplay:10.37,2013-01-27 14:00:00,
2013-01-27 09:05:00,63.0,59.0,30.22,North,6,2.0,6.0,87,0.00,FEW,FEW,0.00,WeatherDisplay:10.37,2013-01-27 14:05:00,
2013-01-27 09:10:00,63.3,59.4,30.22,NNE,13,1.0,5.0,87,0.00,FEW,FEW,0.00,WeatherDisplay:10.37,2013-01-27 14:10:00,
2013-01-27 09:20:00,64.4,59.7,30.22,NNE,20,3.0,5.0,85,0.00,FEW,FEW,0.00,WeatherDisplay:10.37,2013-01-27 14:20:00,
2013-01-27 09:30:00,64.8,59.5,30.23,North,10,3.0,6.0,83,0.00,FEW,FEW,0.00,WeatherDisplay:10.37,2013-01-27 14:30:00,
2013-01-27 09:40:00,66.0,60.0,30.23,NNE,28,2.0,5.0,81,0.00,FEW,FEW,0.00,WeatherDisplay:10.37,2013-01-27 14:40:00,
2013-01-27 09:50:00,66.9,60.5,30.23,NNE,28,3.0,6.0,80,0.00,FEW,FEW,0.00,WeatherDisplay:10.37,2013-01-27 14:50:00,
2013-01-27 10:00:00,67.6,59.8,30.23,NNE,21,3.0,6.0,76,0.00,FEW,FEW,0.00,WeatherDisplay:10.37,2013-01-27 15:00:00,
2013-01-27 10:05:00,68.0,59.8,30.24,North,8,5.0,6.0,75,0.00,FEW,FEW,0.00,WeatherDisplay:10.37,2013-01-27 15:05:00,
2013-01-27 10:10:00,68.7,60.4,30.24,NNE,21,1.0,5.0,75,0.00,FEW,FEW,0.00,WeatherDisplay:10.37,2013-01-27 15:10:00,
2013-01-27 10:20:00,69.8,59.9,30.24,NNE,29,3.0,5.0,71,0.00,FEW,FEW,0.00,WeatherDisplay:10.37,2013-01-27 15:20:00,
2013-01-27 10:30:00,70.3,60.1,30.24,NNE,29,3.0,5.0,70,0.00,FEW,FEW,0.00,WeatherDisplay:10.37,2013-01-27 15:30:00,
2013-01-27 10:40:00,70.9,59.0,30.24,NNE,23,3.0,6.0,66,0.00,FEW,FEW,0.00,WeatherDisplay:10.37,2013-01-27 15:40:00,
2013-01-27 10:50:00,71.7,59.7,30.24,NNE,18,1.0,6.0,66,0.00,FEW,FEW,0.00,WeatherDisplay:10.37,2013-01-27 15:50:00,
2013-01-27 11:00:00,73.2,59.8,30.24,ENE,59,3.0,6.0,63,0.00,FEW,FEW,0.00,WeatherDisplay:10.37,2013-01-27 16:00:00,
2013-01-27 11:10:00,73.2,58.0,30.24,NNE,22,3.0,6.0,59,0.00,FEW,FEW,0.00,WeatherDisplay:10.37,2013-01-27 16:10:00,
2013-01-27 11:20:00,73.7,58.5,30.23,North,11,5.0,6.0,59,0.00,FEW,FEW,0.00,WeatherDisplay:10.37,2013-01-27 16:20:00,
2013-01-27 11:30:00,73.5,58.3,30.23,North,11,5.0,9.0,59,0.00,FEW,FEW,0.00,WeatherDisplay:10.37,2013-01-27 16:30:00,
2013-01-27 11:40:00,73.3,57.6,30.23,North,5,3.0,9.0,58,0.00,FEW,FEW,0.00,WeatherDisplay:10.37,2013-01-27 16:40:00,
2013-01-27 11:50:00,75.1,59.3,30.23,NE,41,3.0,6.0,58,0.00,FEW,FEW,0.00,WeatherDisplay:10.37,2013-01-27 16:50:00,
2013-01-27 12:00:00,74.8,58.1,30.22,NNE,16,5.0,8.0,56,0.00,FEW,FEW,0.00,WeatherDisplay:10.37,2013-01-27 17:00:00,
2013-01-27 12:05:00,74.3,58.6,30.22,NNE,12,5.0,8.0,58,0.00,FEW,FEW,0.00,WeatherDisplay:10.37,2013-01-27 17:05:00,
2013-01-27 12:10:00,74.4,58.2,30.22,NNE,31,5.0,8.0,57,0.00,FEW,FEW,0.00,WeatherDisplay:10.37,2013-01-27 17:10:00,
2013-01-27 12:20:00,75.0,57.8,30.21,NNE,26,3.0,8.0,55,0.00,FEW,FEW,0.00,WeatherDisplay:10.37,2013-01-27 17:20:00,
2013-01-27 12:30:00,75.4,58.1,30.21,NNE,17,5.0,7.0,55,0.00,FEW,FEW,0.00,WeatherDisplay:10.37,2013-01-27 17:30:00,
2013-01-27 12:40:00,75.2,57.4,30.20,NNE,13,2.0,8.0,54,0.00,FEW,FEW,0.00,WeatherDisplay:10.37,2013-01-27 17:40:00,
2013-01-27 12:50:00,76.3,57.9,30.20,NNE,33,6.0,10.0,53,0.00,FEW,FEW,0.00,WeatherDisplay:10.37,2013-01-27 17:50:00,
2013-01-27 13:00:00,76.9,58.5,30.19,ENE,68,2.0,5.0,53,0.00,FEW,FEW,0.00,WeatherDisplay:10.37,2013-01-27 18:00:00,
2013-01-27 13:10:00,77.3,58.3,30.19,ENE,69,2.0,6.0,52,0.00,FEW,FEW,0.00,WeatherDisplay:10.37,2013-01-27 18:10:00,
2013-01-27 13:20:00,77.9,57.8,30.18,East,79,3.0,6.0,50,0.00,FEW,FEW,0.00,WeatherDisplay:10.37,2013-01-27 18:20:00,
2013-01-27 13:30:00,76.5,57.0,30.18,NE,56,7.0,10.0,51,0.00,FEW,FEW,0.00,WeatherDisplay:10.37,2013-01-27 18:30:00,
2013-01-27 13:40:00,77.2,58.2,30.17,NE,52,3.0,7.0,52,0.00,FEW,FEW,0.00,WeatherDisplay:10.37,2013-01-27 18:40:00,
2013-01-27 13:50:00,77.0,57.5,30.17,NE,39,1.0,10.0,51,0.00,FEW,FEW,0.00,WeatherDisplay:10.37,2013-01-27 18:50:00,
2013-01-27 14:00:00,77.9,57.2,30.17,East,83,6.0,10.0,49,0.00,FEW,FEW,0.00,WeatherDisplay:10.37,2013-01-27 19:00:00,
2013-01-27 14:05:00,78.2,57.4,30.17,ENE,72,5.0,8.0,49,0.00,FEW,FEW,0.00,WeatherDisplay:10.37,2013-01-27 19:05:00,
2013-01-27 14:10:00,78.8,58.0,30.17,East,80,3.0,7.0,49,0.00,FEW,FEW,0.00,WeatherDisplay:10.37,2013-01-27 19:10:00,
2013-01-27 14:20:00,78.1,57.9,30.17,NE,46,7.0,10.0,50,0.00,FEW,FEW,0.00,WeatherDisplay:10.37,2013-01-27 19:20:00,
2013-01-27 14:30:00,78.1,57.4,30.17,ENE,59,8.0,9.0,49,0.00,FEW,FEW,0.00,WeatherDisplay:10.37,2013-01-27 19:30:00,
2013-01-27 14:40:00,79.2,57.2,30.17,NE,46,7.0,8.0,47,0.00,FEW,FEW,0.00,WeatherDisplay:10.37,2013-01-27 19:40:00,
2013-01-27 14:50:00,77.6,56.9,30.17,ENE,76,7.0,10.0,49,0.00,FEW,FEW,0.00,WeatherDisplay:10.37,2013-01-27 19:50:00,
2013-01-27 15:00:00,76.9,57.4,30.17,ENE,61,6.0,8.0,51,0.00,FEW,FEW,0.00,WeatherDisplay:10.37,2013-01-27 20:00:00,
2013-01-27 15:05:00,78.6,57.8,30.16,ENE,71,3.0,10.0,49,0.00,SCT,SCT,0.00,WeatherDisplay:10.37,2013-01-27 20:05:00,
2013-01-27 15:10:00,78.6,57.2,30.16,ENE,71,7.0,9.0,48,0.00,SCT,SCT,0.00,WeatherDisplay:10.37,2013-01-27 20:10:00,
2013-01-27 15:20:00,79.8,57.8,30.16,East,85,3.0,7.0,47,0.00,SCT,SCT,0.00,WeatherDisplay:10.37,2013-01-27 20:20:00,
2013-01-27 15:30:00,79.9,56.6,30.16,East,82,9.0,12.0,45,0.00,SCT,SCT,0.00,WeatherDisplay:10.37,2013-01-27 20:30:00,
2013-01-27 15:40:00,79.5,56.9,30.16,ENE,64,6.0,10.0,46,0.00,SCT,SCT,0.00,WeatherDisplay:10.37,2013-01-27 20:40:00,
2013-01-27 15:50:00,77.7,56.5,30.16,ENE,66,7.0,10.0,48,0.00,SCT,SCT,0.00,WeatherDisplay:10.37,2013-01-27 20:50:00,
2013-01-27 16:00:00,78.3,57.5,30.16,ENE,68,6.0,9.0,49,0.00,SCT,SCT,0.00,WeatherDisplay:10.37,2013-01-27 21:00:00,
2013-01-27 16:05:00,78.8,57.4,30.17,ENE,77,7.0,10.0,48,0.00,FEW,FEW,0.00,WeatherDisplay:10.37,2013-01-27 21:05:00,
2013-01-27 16:10:00,78.0,56.8,30.17,ENE,65,9.0,12.0,48,0.00,FEW,FEW,0.00,WeatherDisplay:10.37,2013-01-27 21:10:00,
2013-01-27 16:20:00,78.2,57.5,30.17,ENE,75,7.0,10.0,49,0.00,FEW,FEW,0.00,WeatherDisplay:10.37,2013-01-27 21:20:00,
2013-01-27 16:30:00,78.0,57.8,30.17,ENE,69,9.0,12.0,50,0.00,FEW,FEW,0.00,WeatherDisplay:10.37,2013-01-27 21:30:00,
2013-01-27 16:40:00,76.4,57.5,30.18,ENE,66,9.0,13.0,52,0.00,FEW,FEW,0.00,WeatherDisplay:10.37,2013-01-27 21:40:00,
2013-01-27 16:45:00,76.1,57.7,30.18,ENE,68,8.0,12.0,53,0.00,FEW,FEW,0.00,WeatherDisplay:10.37,2013-01-27 21:45:00,
2013-01-27 16:50:00,75.6,57.8,30.18,ENE,70,8.0,13.0,54,0.00,FEW,FEW,0.00,WeatherDisplay:10.37,2013-01-27 21:50:00,
2013-01-27 17:00:00,75.4,58.1,30.19,East,80,9.0,10.0,55,0.00,FEW,FEW,0.00,WeatherDisplay:10.37,2013-01-27 22:00:00,
2013-01-27 17:05:00,75.3,58.0,30.19,East,83,7.0,13.0,55,0.00,FEW,FEW,0.00,WeatherDisplay:10.37,2013-01-27 22:05:00,
2013-01-27 17:10:00,74.9,58.6,30.19,ENE,74,6.0,10.0,57,0.00,FEW,FEW,0.00,WeatherDisplay:10.37,2013-01-27 22:10:00,
2013-01-27 17:20:00,74.1,59.3,30.19,ENE,64,7.0,10.0,60,0.00,FEW,FEW,0.00,WeatherDisplay:10.37,2013-01-27 22:20:00,
2013-01-27 17:30:00,73.4,60.5,30.20,ENE,65,7.0,10.0,64,0.00,FEW,FEW,0.00,WeatherDisplay:10.37,2013-01-27 22:30:00,
2013-01-27 17:40:00,73.0,60.5,30.20,ENE,68,6.0,9.0,65,0.00,FEW,FEW,0.00,WeatherDisplay:10.37,2013-01-27 22:40:00,
2013-01-27 17:50:00,71.9,60.8,30.20,ENE,68,9.0,12.0,68,0.00,FEW,FEW,0.00,WeatherDisplay:10.37,2013-01-27 22:50:00,
2013-01-27 18:00:00,71.1,60.8,30.20,ENE,60,7.0,9.0,70,0.00,FEW,FEW,0.00,WeatherDisplay:10.37,2013-01-27 23:00:00,
2013-01-27 18:05:00,70.9,61.4,30.20,ENE,58,7.0,9.0,72,0.00,FEW,FEW,0.00,WeatherDisplay:10.37,2013-01-27 23:05:00,
2013-01-27 18:10:00,70.7,61.6,30.20,NE,56,7.0,10.0,73,0.00,FEW,FEW,0.00,WeatherDisplay:10.37,2013-01-27 23:10:00,
2013-01-27 18:20:00,70.2,61.5,30.20,ENE,71,6.0,9.0,74,0.00,FEW,FEW,0.00,WeatherDisplay:10.37,2013-01-27 23:20:00,
2013-01-27 18:30:00,69.8,61.5,30.21,ENE,64,7.0,9.0,75,0.00,FEW,FEW,0.00,WeatherDisplay:10.37,2013-01-27 23:30:00,
2013-01-27 18:40:00,69.5,61.2,30.21,ENE,67,5.0,7.0,75,0.00,FEW,FEW,0.00,WeatherDisplay:10.37,2013-01-27 23:40:00,
2013-01-27 18:50:00,69.3,61.4,30.21,ENE,73,3.0,7.0,76,0.00,FEW,FEW,0.00,WeatherDisplay:10.37,2013-01-27 23:50:00,
2013-01-27 19:00:00,68.9,61.4,30.21,ENE,67,3.0,5.0,77,0.00,FEW,FEW,0.00,WeatherDisplay:10.37,2013-01-28 00:00:00,
2013-01-27 19:05:00,68.9,61.4,30.21,ENE,65,3.0,6.0,77,0.00,FEW,FEW,0.00,WeatherDisplay:10.37,2013-01-28 00:05:00,
2013-01-27 19:10:00,68.7,61.2,30.21,ENE,68,2.0,4.0,77,0.00,FEW,FEW,0.00,WeatherDisplay:10.37,2013-01-28 00:10:00,
2013-01-27 19:15:00,68.7,61.2,30.21,ENE,69,5.0,6.0,77,0.00,FEW,FEW,0.00,WeatherDisplay:10.37,2013-01-28 00:15:00,
2013-01-27 19:20:00,68.7,61.2,30.21,ENE,70,2.0,6.0,77,0.00,FEW,FEW,0.00,WeatherDisplay:10.37,2013-01-28 00:20:00,
2013-01-27 19:30:00,68.6,61.4,30.22,ENE,63,3.0,5.0,78,0.00,FEW,FEW,0.00,WeatherDisplay:10.37,2013-01-28 00:30:00,
2013-01-27 19:40:00,68.4,61.3,30.22,NE,51,3.0,6.0,78,0.00,FEW,FEW,0.00,WeatherDisplay:10.37,2013-01-28 00:40:00,
2013-01-27 19:50:00,68.4,61.2,30.22,NE,54,5.0,6.0,78,0.00,FEW,FEW,0.00,WeatherDisplay:10.37,2013-01-28 00:50:00,
2013-01-27 20:00:00,68.2,61.4,30.22,ENE,60,5.0,6.0,79,0.00,FEW,FEW,0.00,WeatherDisplay:10.37,2013-01-28 01:00:00,
2013-01-27 20:05:00,68.1,61.3,30.22,ENE,62,3.0,6.0,79,0.00,SCT,SCT,0.00,WeatherDisplay:10.37,2013-01-28 01:05:00,
2013-01-27 20:10:00,68.0,61.6,30.22,ENE,64,2.0,5.0,80,0.00,SCT,SCT,0.00,WeatherDisplay:10.37,2013-01-28 01:10:00,
2013-01-27 20:20:00,67.6,61.2,30.23,ENE,63,3.0,5.0,80,0.00,SCT,SCT,0.00,WeatherDisplay:10.37,2013-01-28 01:20:00,
2013-01-27 20:30:00,67.5,61.4,30.23,ENE,58,5.0,5.0,81,0.00,SCT,SCT,0.00,WeatherDisplay:10.37,2013-01-28 01:30:00,
2013-01-27 20:40:00,67.3,61.6,30.23,ENE,61,3.0,6.0,82,0.00,SCT,SCT,0.00,WeatherDisplay:10.37,2013-01-28 01:40:00,
2013-01-27 20:50:00,67.3,61.9,30.23,NE,51,5.0,7.0,83,0.00,SCT,SCT,0.00,WeatherDisplay:10.37,2013-01-28 01:50:00,
2013-01-27 21:00:00,67.5,62.1,30.23,ENE,60,5.0,7.0,83,0.00,SCT,SCT,0.00,WeatherDisplay:10.37,2013-01-28 02:00:00,
2013-01-27 21:11:00,67.3,61.9,30.23,ENE,60,2.0,5.0,83,0.00,BKN,BKN,0.00,WeatherDisplay:10.37,2013-01-28 02:11:00,
2013-01-27 21:20:00,67.3,61.9,30.24,NE,52,3.0,6.0,83,0.00,BKN,BKN,0.00,WeatherDisplay:10.37,2013-01-28 02:20:00,
2013-01-27 21:30:00,67.3,62.3,30.24,ENE,60,3.0,6.0,84,0.00,BKN,BKN,0.00,WeatherDisplay:10.37,2013-01-28 02:30:00,
2013-01-27 21:40:00,67.3,62.3,30.24,ENE,61,3.0,6.0,84,0.00,BKN,BKN,0.00,WeatherDisplay:10.37,2013-01-28 02:40:00,
2013-01-27 21:50:00,67.3,62.3,30.24,ENE,58,7.0,9.0,84,0.00,BKN,BKN,0.00,WeatherDisplay:10.37,2013-01-28 02:50:00,
2013-01-27 22:00:00,67.0,62.0,30.24,NE,56,5.0,6.0,84,0.00,BKN,BKN,0.00,WeatherDisplay:10.37,2013-01-28 03:00:00,
2013-01-27 22:05:00,67.1,62.1,30.24,NE,55,5.0,7.0,84,0.00,BKN,BKN,0.00,WeatherDisplay:10.37,2013-01-28 03:05:00,
2013-01-27 22:10:00,67.0,62.0,30.24,NE,54,3.0,6.0,84,0.00,BKN,BKN,0.00,WeatherDisplay:10.37,2013-01-28 03:10:00,
2013-01-27 22:20:00,67.0,62.0,30.23,NE,55,3.0,7.0,84,0.00,BKN,BKN,0.00,WeatherDisplay:10.37,2013-01-28 03:20:00,
2013-01-27 22:30:00,67.1,62.1,30.24,NE,54,5.0,8.0,84,0.00,BKN,BKN,0.00,WeatherDisplay:10.37,2013-01-28 03:30:00,
2013-01-27 22:40:00,67.3,62.3,30.24,NE,53,7.0,8.0,84,0.00,-RA,-RA,0.00,WeatherDisplay:10.37,2013-01-28 03:40:00,
2013-01-27 22:50:00,67.3,62.3,30.24,ENE,68,5.0,7.0,84,0.00,-RA,-RA,0.00,WeatherDisplay:10.37,2013-01-28 03:50:00,
2013-01-27 22:55:00,67.3,61.9,30.24,ENE,66,2.0,7.0,83,0.00,-RA,-RA,0.00,WeatherDisplay:10.37,2013-01-28 03:55:00,
2013-01-27 23:05:00,67.3,62.3,30.24,ENE,63,5.0,7.0,84,0.00,-RA,-RA,0.00,WeatherDisplay:10.37,2013-01-28 04:05:00,
2013-01-27 23:10:00,67.3,61.9,30.24,ENE,68,2.0,6.0,83,0.00,-RA,-RA,0.00,WeatherDisplay:10.37,2013-01-28 04:10:00,
2013-01-27 23:20:00,67.3,61.9,30.23,ENE,66,6.0,6.0,83,0.00,-RA,-RA,0.00,WeatherDisplay:10.37,2013-01-28 04:20:00,
2013-01-27 23:30:00,67.3,61.9,30.23,ENE,57,5.0,7.0,83,0.00,-RA,-RA,0.00,WeatherDisplay:10.37,2013-01-28 04:30:00,
2013-01-27 23:35:00,67.3,61.9,30.22,ENE,67,5.0,7.0,83,0.00,OVC,OVC,0.00,WeatherDisplay:10.37,2013-01-28 04:35:00,
2013-01-27 23:40:00,67.3,61.9,30.23,East,89,2.0,6.0,83,0.00,OVC,OVC,0.00,WeatherDisplay:10.37,2013-01-28 04:40:00,
2013-01-27 23:50:00,66.9,61.9,30.22,East,84,3.0,5.0,84,0.00,OVC,OVC,0.00,WeatherDisplay:10.37,2013-01-28 04:50:00,